Time;durP1;ratioP1;P1;durP2;ratioP2;P2;SDS_P1;SDS_P2;PMS_P1;PMS_P2;Temp;Humidity;BMP_temperature;BMP_pressure;BME280_temperature;BME280_humidity;BME280_pressure;Samples;Min_cycle;Max_cycle;Signal;HPM_P1;HPM_P2
2022/09/20 00:00:41;;;;;;;0.10;0.10;;;;;;;;;;5019341;28;20203;-78
2022/09/20 00:03:10;;;;;;;0.00;0.00;;;;;;;;;;5015564;28;20220;-76
2022/09/20 00:05:38;;;;;;;0.00;0.00;;;;;;;;;;5025829;28;20228;-78
2022/09/20 00:08:06;;;;;;;0.10;0.10;;;;;;;;;;5026926;28;20653;-78
2022/09/20 00:10:35;;;;;;;0.00;0.00;;;;;;;;;;5022924;28;20196;-78
2022/09/20 00:13:02;;;;;;;0.00;0.00;;;;;;;;;;5026154;28;20246;-78
2022/09/20 00:15:31;;;;;;;0.00;0.00;;;;;;;;;;5023177;28;20618;-78
2022/09/20 00:17:58;;;;;;;0.00;0.00;;;;;;;;;;5024647;28;20200;-78
2022/09/20 00:20:27;;;;;;;0.10;0.10;;;;;;;;;;5025236;28;20200;-78
2022/09/20 00:22:54;;;;;;;0.00;0.00;;;;;;;;;;5018645;28;20659;-78
2022/09/20 00:25:22;;;;;;;0.00;0.00;;;;;;;;;;5038740;28;20237;-79
2022/09/20 00:27:49;;;;;;;0.00;0.00;;;;;;;;;;5026202;28;20243;-78
2022/09/20 00:30:17;;;;;;;0.00;0.00;;;;;;;;;;5023981;28;20638;-77
2022/09/20 00:32:44;;;;;;;0.00;0.00;;;;;;;;;;5023144;28;20222;-78
2022/09/20 00:35:11;;;;;;;0.00;0.00;;;;;;;;;;5040926;28;20207;-77
2022/09/20 00:37:40;;;;;;;0.00;0.00;;;;;;;;;;5023842;28;20627;-78
2022/09/20 00:40:09;;;;;;;0.10;0.10;;;;;;;;;;5027106;28;20200;-78
2022/09/20 00:42:36;;;;;;;0.10;0.10;;;;;;;;;;5012211;28;20654;-78
2022/09/20 00:45:04;;;;;;;0.00;0.00;;;;;;;;;;5025403;28;20322;-78
2022/09/20 00:47:35;;;;;;;0.00;0.00;;;;;;;;;;5019141;28;20721;-78
2022/09/20 00:50:06;;;;;;;0.00;0.00;;;;;;;;;;5026846;28;20200;-78
2022/09/20 00:52:34;;;;;;;0.00;0.00;;;;;;;;;;5025540;28;20240;-78
2022/09/20 00:55:04;;;;;;;0.00;0.00;;;;;;;;;;5023204;28;21220;-78
2022/09/20 00:57:34;;;;;;;0.00;0.00;;;;;;;;;;5023907;28;20278;-77
2022/09/20 01:00:05;;;;;;;0.00;0.00;;;;;;;;;;5025784;28;20634;-78
2022/09/20 01:02:33;;;;;;;0.00;0.00;;;;;;;;;;5041742;28;20225;-78
2022/09/20 01:05:00;;;;;;;0.00;0.00;;;;;;;;;;5022804;28;20667;-78
2022/09/20 01:07:28;;;;;;;0.00;0.00;;;;;;;;;;5020809;28;20646;-78
2022/09/20 01:09:56;;;;;;;0.03;0.03;;;;;;;;;;5017918;28;21253;-78
2022/09/20 01:12:27;;;;;;;0.00;0.00;;;;;;;;;;5026550;28;20715;-78
2022/09/20 01:14:55;;;;;;;0.00;0.00;;;;;;;;;;5022319;28;20633;-78
2022/09/20 01:17:23;;;;;;;0.00;0.00;;;;;;;;;;5019016;28;20721;-77
2022/09/20 01:19:55;;;;;;;0.00;0.00;;;;;;;;;;5025221;28;20622;-78
2022/09/20 01:22:26;;;;;;;0.00;0.00;;;;;;;;;;5023261;28;20758;-78
2022/09/20 01:24:59;;;;;;;0.00;0.00;;;;;;;;;;5020980;28;20762;-78
2022/09/20 01:27:36;;;;;;;0.00;0.00;;;;;;;;;;5021226;28;20636;-78
2022/09/20 01:30:05;;;;;;;0.00;0.00;;;;;;;;;;5018958;28;20637;-78
2022/09/20 01:32:39;;;;;;;0.00;0.00;;;;;;;;;;5019435;28;20634;-78
2022/09/20 01:35:10;;;;;;;0.10;0.10;;;;;;;;;;5026713;28;20667;-78
2022/09/20 01:37:42;;;;;;;0.10;0.10;;;;;;;;;;5022992;28;20624;-78
2022/09/20 01:40:13;;;;;;;0.00;0.00;;;;;;;;;;5023239;28;20641;-78
2022/09/20 01:42:46;;;;;;;0.00;0.00;;;;;;;;;;5025317;28;20665;-78
2022/09/20 01:45:19;;;;;;;0.10;0.10;;;;;;;;;;5021229;28;20655;-77
2022/09/20 01:47:52;;;;;;;0.10;0.10;;;;;;;;;;5035263;28;20626;-78
2022/09/20 01:50:23;;;;;;;0.00;0.00;;;;;;;;;;5024224;28;20623;-78
2022/09/20 01:53:00;;;;;;;0.00;0.00;;;;;;;;;;5022115;28;20658;-78
2022/09/20 01:55:37;;;;;;;0.10;0.10;;;;;;;;;;5034952;28;21276;-78
2022/09/20 01:58:19;;;;;;;0.00;0.00;;;;;;;;;;5023557;28;20696;-78
2022/09/20 02:00:58;;;;;;;0.00;0.00;;;;;;;;;;5020565;28;21177;-77
2022/09/20 02:03:38;;;;;;;0.10;0.10;;;;;;;;;;5021285;28;20614;-78
2022/09/20 02:06:12;;;;;;;0.10;0.10;;;;;;;;;;5022120;28;20658;-78
2022/09/20 02:08:48;;;;;;;0.00;0.00;;;;;;;;;;5025342;28;20625;-78
2022/09/20 02:11:16;;;;;;;0.00;0.00;;;;;;;;;;5025573;28;20666;-78
2022/09/20 02:13:55;;;;;;;0.10;0.10;;;;;;;;;;5038128;28;20623;-77
2022/09/20 02:16:41;;;;;;;0.00;0.00;;;;;;;;;;5023120;28;20623;-77
2022/09/20 02:19:22;;;;;;;0.00;0.00;;;;;;;;;;5023258;28;20754;-77
2022/09/20 02:21:52;;;;;;;0.07;0.07;;;;;;;;;;5023472;28;20224;-76
2022/09/20 02:24:25;;;;;;;0.00;0.00;;;;;;;;;;5014399;28;20220;-77
2022/09/20 02:27:01;;;;;;;0.10;0.10;;;;;;;;;;5022504;28;20295;-78
2022/09/20 02:29:33;;;;;;;0.10;0.10;;;;;;;;;;5023025;28;20286;-77
2022/09/20 02:32:13;;;;;;;0.00;0.00;;;;;;;;;;5019265;28;20235;-77
2022/09/20 02:34:51;;;;;;;0.00;0.00;;;;;;;;;;5018668;28;20630;-77
2022/09/20 02:37:39;;;;;;;0.00;0.00;;;;;;;;;;5023574;28;20214;-77
2022/09/20 02:40:14;;;;;;;0.10;0.10;;;;;;;;;;5022843;28;20623;-77
2022/09/20 02:42:44;;;;;;;0.03;0.03;;;;;;;;;;5020723;28;20693;-77
2022/09/20 02:45:16;;;;;;;0.10;0.10;;;;;;;;;;5036941;28;20646;-77
2022/09/20 02:47:44;;;;;;;0.10;0.10;;;;;;;;;;5023748;28;20626;-77
2022/09/20 02:50:16;;;;;;;0.00;0.00;;;;;;;;;;5022116;28;20627;-77
2022/09/20 02:52:47;;;;;;;0.10;0.10;;;;;;;;;;5038715;28;21246;-77
2022/09/20 02:55:18;;;;;;;0.00;0.00;;;;;;;;;;5023003;28;20725;-78
2022/09/20 02:57:49;;;;;;;0.10;0.10;;;;;;;;;;5019609;28;20631;-77
2022/09/20 03:00:20;;;;;;;0.10;0.10;;;;;;;;;;5034154;28;20633;-77
2022/09/20 03:02:51;;;;;;;0.10;0.10;;;;;;;;;;5035017;28;20219;-77
2022/09/20 03:05:24;;;;;;;0.00;0.00;;;;;;;;;;5024214;28;20689;-78
2022/09/20 03:08:04;;;;;;;0.00;0.00;;;;;;;;;;5025409;28;20641;-77
2022/09/20 03:10:36;;;;;;;0.00;0.00;;;;;;;;;;5023019;28;20633;-78
2022/09/20 03:13:11;;;;;;;0.00;0.00;;;;;;;;;;5018393;28;20677;-77
2022/09/20 03:15:46;;;;;;;0.00;0.00;;;;;;;;;;5038804;28;20630;-77
2022/09/20 03:18:16;;;;;;;0.00;0.00;;;;;;;;;;5006481;28;20642;-77
2022/09/20 03:20:50;;;;;;;0.00;0.00;;;;;;;;;;5020370;28;20617;-77
2022/09/20 03:23:23;;;;;;;0.00;0.00;;;;;;;;;;5036464;28;20706;-77
2022/09/20 03:25:54;;;;;;;0.00;0.00;;;;;;;;;;5019886;28;20682;-77
2022/09/20 03:28:42;;;;;;;0.00;0.00;;;;;;;;;;5019904;28;20623;-77
2022/09/20 03:31:15;;;;;;;0.00;0.00;;;;;;;;;;5018013;28;20793;-77
2022/09/20 03:33:48;;;;;;;0.00;0.00;;;;;;;;;;5020234;28;20686;-77
2022/09/20 03:36:25;;;;;;;0.00;0.00;;;;;;;;;;5023535;28;20750;-77
2022/09/20 03:39:06;;;;;;;0.10;0.10;;;;;;;;;;5025000;28;20206;-77
2022/09/20 03:41:40;;;;;;;0.00;0.00;;;;;;;;;;5022033;28;20219;-77
2022/09/20 03:44:23;;;;;;;0.10;0.10;;;;;;;;;;5024020;28;20631;-77
2022/09/20 03:46:58;;;;;;;0.00;0.00;;;;;;;;;;5021087;28;20223;-77
2022/09/20 03:49:49;;;;;;;0.10;0.10;;;;;;;;;;5019794;28;20699;-77
2022/09/20 03:52:23;;;;;;;0.00;0.00;;;;;;;;;;5018149;28;20655;-76
2022/09/20 03:55:07;;;;;;;0.10;0.10;;;;;;;;;;5019900;28;21072;-76
2022/09/20 03:57:39;;;;;;;0.00;0.00;;;;;;;;;;5020317;28;20633;-77
2022/09/20 04:00:23;;;;;;;0.00;0.00;;;;;;;;;;5020960;28;20680;-77
2022/09/20 04:03:03;;;;;;;0.00;0.00;;;;;;;;;;5021116;28;20662;-77
2022/09/20 04:05:36;;;;;;;0.00;0.00;;;;;;;;;;5036335;28;21038;-77
2022/09/20 04:08:12;;;;;;;0.10;0.10;;;;;;;;;;5019870;28;20622;-77
2022/09/20 04:10:45;;;;;;;0.00;0.00;;;;;;;;;;5023939;28;20617;-77
2022/09/20 04:13:18;;;;;;;0.00;0.00;;;;;;;;;;5018059;28;20659;-79
2022/09/20 04:15:51;;;;;;;0.10;0.10;;;;;;;;;;5017639;28;20200;-79
2022/09/20 04:18:24;;;;;;;0.10;0.10;;;;;;;;;;5023137;28;20720;-79
2022/09/20 04:20:57;;;;;;;0.10;0.10;;;;;;;;;;5023932;28;20196;-78
2022/09/20 04:23:34;;;;;;;0.00;0.00;;;;;;;;;;5023709;28;20634;-79
2022/09/20 04:26:02;;;;;;;0.07;0.07;;;;;;;;;;5021148;28;20654;-78
2022/09/20 04:28:34;;;;;;;0.10;0.10;;;;;;;;;;5022733;28;20615;-78
2022/09/20 04:31:05;;;;;;;0.10;0.10;;;;;;;;;;5023972;28;20630;-78
2022/09/20 04:33:35;;;;;;;0.10;0.10;;;;;;;;;;5020347;28;20622;-78
2022/09/20 04:36:27;;;;;;;0.00;0.00;;;;;;;;;;5019803;28;20618;-78
2022/09/20 04:39:08;;;;;;;0.00;0.00;;;;;;;;;;5020137;28;20638;-78
2022/09/20 04:41:55;;;;;;;0.10;0.10;;;;;;;;;;5021427;28;20667;-79
2022/09/20 04:44:46;;;;;;;0.10;0.10;;;;;;;;;;5020072;28;20694;-79
2022/09/20 04:47:37;;;;;;;0.00;0.00;;;;;;;;;;4943024;28;20666;-79
2022/09/20 04:50:22;;;;;;;0.00;0.00;;;;;;;;;;5021821;28;20651;-79
2022/09/20 04:53:15;;;;;;;0.00;0.00;;;;;;;;;;5027012;28;20674;-78
2022/09/20 04:55:55;;;;;;;0.10;0.10;;;;;;;;;;5024529;28;20662;-79
2022/09/20 04:58:45;;;;;;;0.00;0.00;;;;;;;;;;5036835;28;20619;-78
2022/09/20 05:01:37;;;;;;;0.00;0.00;;;;;;;;;;5045879;28;20696;-81
2022/09/20 05:04:15;;;;;;;0.00;0.00;;;;;;;;;;5038274;28;20666;-78
2022/09/20 05:06:57;;;;;;;0.00;0.00;;;;;;;;;;5046759;28;20765;-79
2022/09/20 05:09:50;;;;;;;0.00;0.00;;;;;;;;;;5028870;28;20632;-78
2022/09/20 05:12:46;;;;;;;0.10;0.10;;;;;;;;;;5018555;28;20671;-79
2022/09/20 05:15:33;;;;;;;0.00;0.00;;;;;;;;;;5023253;28;20685;-80
2022/09/20 05:18:20;;;;;;;0.10;0.10;;;;;;;;;;5022485;28;20630;-78
2022/09/20 05:20:53;;;;;;;0.00;0.00;;;;;;;;;;5026816;28;20618;-78
2022/09/20 05:23:35;;;;;;;0.10;0.10;;;;;;;;;;5021453;28;20919;-78
2022/09/20 05:26:09;;;;;;;0.07;0.07;;;;;;;;;;5020433;28;20650;-78
2022/09/20 05:28:42;;;;;;;0.00;0.00;;;;;;;;;;5023189;28;20633;-78
2022/09/20 05:31:12;;;;;;;0.00;0.00;;;;;;;;;;5020761;28;20626;-78
2022/09/20 05:33:44;;;;;;;0.00;0.00;;;;;;;;;;5023860;28;20200;-78
2022/09/20 05:36:14;;;;;;;0.00;0.00;;;;;;;;;;5020015;28;20635;-78
2022/09/20 05:38:47;;;;;;;0.00;0.00;;;;;;;;;;5025662;28;20615;-77
2022/09/20 05:41:18;;;;;;;0.00;0.00;;;;;;;;;;5020221;28;20650;-77
2022/09/20 05:43:53;;;;;;;0.10;0.10;;;;;;;;;;5022191;28;20623;-77
2022/09/20 05:46:30;;;;;;;0.00;0.00;;;;;;;;;;5023898;28;20653;-76
2022/09/20 05:49:03;;;;;;;0.10;0.10;;;;;;;;;;5020607;28;20627;-77
2022/09/20 05:51:36;;;;;;;0.00;0.00;;;;;;;;;;5026292;28;20744;-79
2022/09/20 05:54:13;;;;;;;0.00;0.00;;;;;;;;;;5025696;28;20630;-79
2022/09/20 05:56:46;;;;;;;0.03;0.03;;;;;;;;;;5025338;28;20618;-79
2022/09/20 05:59:22;;;;;;;0.00;0.00;;;;;;;;;;5022945;28;20695;-80
2022/09/20 06:01:59;;;;;;;0.00;0.00;;;;;;;;;;5022296;28;20658;-78
2022/09/20 06:04:29;;;;;;;0.00;0.00;;;;;;;;;;5026752;28;20633;-78
2022/09/20 06:07:01;;;;;;;0.10;0.10;;;;;;;;;;5022191;28;20665;-78
2022/09/20 06:09:51;;;;;;;0.00;0.00;;;;;;;;;;5026375;28;20610;-78
2022/09/20 06:12:30;;;;;;;0.00;0.00;;;;;;;;;;5026259;28;20675;-81
2022/09/20 06:15:04;;;;;;;0.00;0.00;;;;;;;;;;5021482;28;20602;-79
2022/09/20 06:17:33;;;;;;;0.10;0.10;;;;;;;;;;5027267;28;20645;-80
2022/09/20 06:20:09;;;;;;;0.03;0.03;;;;;;;;;;5026724;28;20623;-80
2022/09/20 06:22:39;;;;;;;0.00;0.00;;;;;;;;;;5024820;28;21014;-79
2022/09/20 06:25:13;;;;;;;0.00;0.00;;;;;;;;;;5024094;28;20663;-79
2022/09/20 06:27:42;;;;;;;0.00;0.00;;;;;;;;;;5021127;28;20670;-80
2022/09/20 06:30:15;;;;;;;0.00;0.00;;;;;;;;;;5024290;28;20208;-79
2022/09/20 06:32:53;;;;;;;0.00;0.00;;;;;;;;;;5022142;28;20232;-80
2022/09/20 06:35:21;;;;;;;0.10;0.10;;;;;;;;;;5026034;28;20627;-79
2022/09/20 06:43:26;;;;;;;0.00;0.00;;;;;;;;;;5034543;28;20192;-79
2022/09/20 06:45:55;;;;;;;0.10;0.10;;;;;;;;;;5025869;28;20750;-79
2022/09/20 06:48:24;;;;;;;0.00;0.00;;;;;;;;;;5025107;28;20254;-79
2022/09/20 06:50:51;;;;;;;0.00;0.00;;;;;;;;;;5021482;28;20621;-79
2022/09/20 06:53:19;;;;;;;0.00;0.00;;;;;;;;;;5024037;28;20230;-80
2022/09/20 06:55:47;;;;;;;0.00;0.00;;;;;;;;;;5021224;28;20259;-79
2022/09/20 06:58:14;;;;;;;0.00;0.00;;;;;;;;;;5022301;28;20208;-79
2022/09/20 07:01:01;;;;;;;0.10;0.10;;;;;;;;;;5021507;28;20192;-78
2022/09/20 07:03:31;;;;;;;0.10;0.10;;;;;;;;;;5022372;28;20574;-81
2022/09/20 07:05:59;;;;;;;0.00;0.00;;;;;;;;;;5021146;28;21350;-81
2022/09/20 07:08:26;;;;;;;0.00;0.00;;;;;;;;;;5023348;28;20212;-80
2022/09/20 07:10:54;;;;;;;0.00;0.00;;;;;;;;;;5025314;28;20204;-79
2022/09/20 07:13:21;;;;;;;0.00;0.00;;;;;;;;;;5019521;28;20302;-80
2022/09/20 07:15:49;;;;;;;0.03;0.03;;;;;;;;;;5023763;28;20196;-81
2022/09/20 07:18:18;;;;;;;0.10;0.10;;;;;;;;;;5023621;28;20208;-80
2022/09/20 07:20:47;;;;;;;0.00;0.00;;;;;;;;;;5025147;28;20287;-80
2022/09/20 07:23:15;;;;;;;0.00;0.00;;;;;;;;;;5022711;28;20216;-81
2022/09/20 07:25:43;;;;;;;0.00;0.00;;;;;;;;;;5022379;28;20298;-80
2022/09/20 07:28:11;;;;;;;0.00;0.00;;;;;;;;;;5020853;28;20196;-80
2022/09/20 07:30:38;;;;;;;0.00;0.00;;;;;;;;;;5020522;28;20261;-79
2022/09/20 07:33:06;;;;;;;0.00;0.00;;;;;;;;;;5021305;28;20236;-80
2022/09/20 07:35:34;;;;;;;0.00;0.00;;;;;;;;;;5022452;28;20202;-79
2022/09/20 07:38:03;;;;;;;0.00;0.00;;;;;;;;;;5025687;28;20204;-79
2022/09/20 07:40:30;;;;;;;0.10;0.10;;;;;;;;;;5024877;28;20211;-79
2022/09/20 07:42:58;;;;;;;0.00;0.00;;;;;;;;;;5026060;28;20228;-76
2022/09/20 07:45:26;;;;;;;0.00;0.00;;;;;;;;;;5021487;28;20207;-76
2022/09/20 07:47:53;;;;;;;0.10;0.10;;;;;;;;;;5023217;28;20247;-80
2022/09/20 07:50:21;;;;;;;0.00;0.00;;;;;;;;;;5022177;28;20702;-79
2022/09/20 07:52:48;;;;;;;0.00;0.00;;;;;;;;;;5024896;28;20220;-79
2022/09/20 07:55:18;;;;;;;0.00;0.00;;;;;;;;;;5023694;28;20204;-80
2022/09/20 07:57:45;;;;;;;0.00;0.00;;;;;;;;;;5024240;28;20200;-80
2022/09/20 08:00:13;;;;;;;0.00;0.00;;;;;;;;;;5019041;28;20211;-81
2022/09/20 08:02:41;;;;;;;0.10;0.10;;;;;;;;;;5020179;28;20311;-81
2022/09/20 08:05:08;;;;;;;0.00;0.00;;;;;;;;;;5017944;28;20208;-79
2022/09/20 08:07:36;;;;;;;0.00;0.00;;;;;;;;;;5024641;28;20230;-78
2022/09/20 08:10:03;;;;;;;0.10;0.10;;;;;;;;;;5022591;28;20234;-80
2022/09/20 08:12:33;;;;;;;0.10;0.10;;;;;;;;;;5036315;28;20228;-82
2022/09/20 08:15:00;;;;;;;0.00;0.00;;;;;;;;;;5019750;28;20752;-79
2022/09/20 08:17:28;;;;;;;0.00;0.00;;;;;;;;;;5018697;28;20196;-80
2022/09/20 08:19:55;;;;;;;0.10;0.10;;;;;;;;;;5019432;28;20230;-79
2022/09/20 08:22:23;;;;;;;0.00;0.00;;;;;;;;;;5021845;28;20805;-80
2022/09/20 08:24:51;;;;;;;0.03;0.03;;;;;;;;;;5024668;28;20231;-79
2022/09/20 08:27:18;;;;;;;0.00;0.00;;;;;;;;;;5027344;28;20223;-80
2022/09/20 08:29:48;;;;;;;0.00;0.00;;;;;;;;;;5025130;28;20200;-79
2022/09/20 08:32:16;;;;;;;0.00;0.00;;;;;;;;;;5027343;28;20249;-79
2022/09/20 08:34:43;;;;;;;0.00;0.00;;;;;;;;;;5028347;28;20204;-81
2022/09/20 08:37:10;;;;;;;0.00;0.00;;;;;;;;;;5027049;28;20227;-80
2022/09/20 08:39:38;;;;;;;0.00;0.00;;;;;;;;;;5027744;28;20196;-80
2022/09/20 08:42:11;;;;;;;0.00;0.00;;;;;;;;;;5026250;28;20224;-80
2022/09/20 08:44:45;;;;;;;0.00;0.00;;;;;;;;;;5024507;28;20208;-80
2022/09/20 08:47:18;;;;;;;0.00;0.00;;;;;;;;;;5026408;28;20234;-80
2022/09/20 08:49:46;;;;;;;0.10;0.10;;;;;;;;;;5026956;28;20210;-82
2022/09/20 08:52:17;;;;;;;0.00;0.00;;;;;;;;;;5023723;28;20228;-80
2022/09/20 08:54:48;;;;;;;0.00;0.00;;;;;;;;;;5025500;28;20674;-79
2022/09/20 08:57:16;;;;;;;0.07;0.07;;;;;;;;;;5026519;28;20223;-78
2022/09/20 08:59:44;;;;;;;0.00;0.00;;;;;;;;;;5022906;28;20200;-78
2022/09/20 09:02:16;;;;;;;0.00;0.00;;;;;;;;;;5027753;28;20274;-81
2022/09/20 09:04:44;;;;;;;0.00;0.00;;;;;;;;;;5023080;28;20204;-82
2022/09/20 09:07:13;;;;;;;0.00;0.00;;;;;;;;;;5024202;28;20235;-81
2022/09/20 09:09:42;;;;;;;0.00;0.00;;;;;;;;;;5022840;28;20204;-82
2022/09/20 09:12:16;;;;;;;0.00;0.00;;;;;;;;;;5028292;28;20231;-80
2022/09/20 09:14:53;;;;;;;0.00;0.00;;;;;;;;;;5022250;28;20222;-80
2022/09/20 09:17:23;;;;;;;0.00;0.00;;;;;;;;;;5028393;28;20196;-80
2022/09/20 09:19:52;;;;;;;0.00;0.00;;;;;;;;;;5027973;28;20208;-80
2022/09/20 09:22:20;;;;;;;0.00;0.00;;;;;;;;;;5026939;28;20216;-81
2022/09/20 09:25:03;;;;;;;0.00;0.00;;;;;;;;;;5028641;28;20208;-81
2022/09/20 09:27:30;;;;;;;0.00;0.00;;;;;;;;;;5027518;28;20228;-81
2022/09/20 09:29:57;;;;;;;0.00;0.00;;;;;;;;;;5028304;28;20200;-80
2022/09/20 09:32:28;;;;;;;0.00;0.00;;;;;;;;;;5025149;28;20230;-80
2022/09/20 09:34:56;;;;;;;0.00;0.00;;;;;;;;;;5019887;28;20211;-80
2022/09/20 09:37:25;;;;;;;0.00;0.00;;;;;;;;;;5024636;28;20635;-80
2022/09/20 09:40:06;;;;;;;0.00;0.00;;;;;;;;;;5027574;28;20258;-81
2022/09/20 09:42:34;;;;;;;0.00;0.00;;;;;;;;;;5019309;28;20286;-80
2022/09/20 09:45:12;;;;;;;0.00;0.00;;;;;;;;;;5023956;28;20232;-80
2022/09/20 09:47:41;;;;;;;0.00;0.00;;;;;;;;;;5021810;28;20306;-80
2022/09/20 09:50:21;;;;;;;0.00;0.00;;;;;;;;;;5019513;28;20196;-80
2022/09/20 09:52:58;;;;;;;0.00;0.00;;;;;;;;;;5020124;28;20227;-80
2022/09/20 09:55:26;;;;;;;0.00;0.00;;;;;;;;;;5024203;28;20270;-81
2022/09/20 09:57:57;;;;;;;0.00;0.00;;;;;;;;;;5022662;28;20193;-81
2022/09/20 10:00:25;;;;;;;0.00;0.00;;;;;;;;;;5022532;28;20216;-81
2022/09/20 10:03:11;;;;;;;0.00;0.00;;;;;;;;;;5019727;28;20219;-81
2022/09/20 10:05:44;;;;;;;0.00;0.00;;;;;;;;;;5026604;28;20196;-81
2022/09/20 10:08:18;;;;;;;0.00;0.00;;;;;;;;;;5023686;28;20215;-82
2022/09/20 10:10:52;;;;;;;0.00;0.00;;;;;;;;;;5023197;28;20211;-81
2022/09/20 10:13:23;;;;;;;0.00;0.00;;;;;;;;;;5037645;28;20235;-83
2022/09/20 10:15:53;;;;;;;0.00;0.00;;;;;;;;;;5028129;28;20615;-81
2022/09/20 10:18:35;;;;;;;0.00;0.00;;;;;;;;;;5049208;28;20537;-82
2022/09/20 10:21:09;;;;;;;0.00;0.00;;;;;;;;;;5025151;28;20204;-82
2022/09/20 10:23:57;;;;;;;0.00;0.00;;;;;;;;;;5024335;28;20209;-82
2022/09/20 10:26:31;;;;;;;0.00;0.00;;;;;;;;;;5031484;28;20208;-82
2022/09/20 10:29:03;;;;;;;0.00;0.00;;;;;;;;;;5019156;28;20318;-81
2022/09/20 10:31:36;;;;;;;0.00;0.00;;;;;;;;;;5022766;28;20231;-80
2022/09/20 10:34:12;;;;;;;0.00;0.00;;;;;;;;;;5026016;28;20211;-81
2022/09/20 10:36:46;;;;;;;0.00;0.00;;;;;;;;;;5020914;28;20242;-81
2022/09/20 10:39:16;;;;;;;0.00;0.00;;;;;;;;;;5023438;28;20253;-82
2022/09/20 10:44:40;;;;;;;0.00;0.00;;;;;;;;;;5025024;28;20449;-80
2022/09/20 10:47:11;;;;;;;0.00;0.00;;;;;;;;;;5023807;28;20220;-81
2022/09/20 10:49:42;;;;;;;0.00;0.00;;;;;;;;;;5027267;28;20235;-82
2022/09/20 10:52:24;;;;;;;0.00;0.00;;;;;;;;;;5027612;28;20223;-81
2022/09/20 10:55:03;;;;;;;0.00;0.00;;;;;;;;;;5038340;28;20204;-82
2022/09/20 10:57:44;;;;;;;0.00;0.00;;;;;;;;;;5029787;28;20203;-81
2022/09/20 11:00:20;;;;;;;0.00;0.00;;;;;;;;;;5028983;28;20200;-81
2022/09/20 11:02:56;;;;;;;0.00;0.00;;;;;;;;;;5021499;28;20239;-80
2022/09/20 11:05:30;;;;;;;0.00;0.00;;;;;;;;;;5025195;28;20211;-81
2022/09/20 11:08:01;;;;;;;0.00;0.00;;;;;;;;;;5026642;28;20223;-81
2022/09/20 11:10:35;;;;;;;0.00;0.00;;;;;;;;;;5045613;28;20211;-81
2022/09/20 11:13:07;;;;;;;0.00;0.00;;;;;;;;;;5023614;28;20231;-80
2022/09/20 11:15:36;;;;;;;0.00;0.00;;;;;;;;;;5029152;28;20215;-82
2022/09/20 11:18:08;;;;;;;0.00;0.00;;;;;;;;;;5018321;28;20204;-79
2022/09/20 11:20:43;;;;;;;0.00;0.00;;;16.00;99.90;;;;;;5021047;28;20204;-80
2022/09/20 11:23:12;;;;;;;0.00;0.00;;;;;;;;;;5023286;28;20245;-80
2022/09/20 11:25:44;;;;;;;0.00;0.00;;;;;;;;;;5021584;28;20204;-79
2022/09/20 11:28:13;;;;;;;0.00;0.00;;;;;;;;;;5018025;28;20231;-79
2022/09/20 11:30:43;;;;;;;0.00;0.00;;;;;;;;;;5021282;28;20207;-80
2022/09/20 11:33:15;;;;;;;0.00;0.00;;;;;;;;;;5028047;28;20310;-80
2022/09/20 11:35:45;;;;;;;0.00;0.00;;;;;;;;;;5022546;28;20259;-81
2022/09/20 11:38:15;;;;;;;0.00;0.00;;;;;;;;;;5019728;28;20243;-83
2022/09/20 11:40:47;;;;;;;0.03;0.03;;;;;;;;;;5023950;28;20205;-81
2022/09/20 11:43:15;;;;;;;0.00;0.00;;;;;;;;;;5023066;28;20224;-80
2022/09/20 11:45:43;;;;;;;0.00;0.00;;;;;;;;;;5026761;28;20200;-80
2022/09/20 11:48:14;;;;;;;0.00;0.00;;;;;;;;;;5017708;28;20307;-80
2022/09/20 11:50:48;;;;;;;0.00;0.00;;;;;;;;;;5025981;28;20207;-81
2022/09/20 11:53:22;;;;;;;0.00;0.00;;;;;;;;;;5019353;28;20658;-80
2022/09/20 11:55:57;;;;;;;0.00;0.00;;;;;;;;;;5021911;28;20241;-80
2022/09/20 11:58:26;;;;;;;0.00;0.00;;;;;;;;;;5018112;28;20199;-81
2022/09/20 12:00:54;;;;;;;0.00;0.00;;;;;;;;;;5023909;28;20219;-79
2022/09/20 12:03:26;;;;;;;0.00;0.00;;;;;;;;;;5022484;28;20204;-80
2022/09/20 12:05:57;;;;;;;0.00;0.00;;;;;;;;;;5021164;28;20199;-81
2022/09/20 12:08:27;;;;;;;0.00;0.00;;;;;;;;;;5020322;28;20290;-81
2022/09/20 12:10:58;;;;;;;0.00;0.00;;;;;;;;;;5025365;28;20223;-80
2022/09/20 12:13:26;;;;;;;0.00;0.00;;;;;;;;;;5015190;28;20243;-80
2022/09/20 12:16:01;;;;;;;0.00;0.00;;;;;;;;;;5021496;28;20196;-80
2022/09/20 12:18:36;;;;;;;0.00;0.00;;;;;;;;;;5022913;28;20196;-79
2022/09/20 12:21:11;;;;;;;0.00;0.00;;;;;;;;;;5023814;28;20203;-80
2022/09/20 12:24:06;;;;;;;0.00;0.00;;;;;;;;;;5019956;28;20253;-79
2022/09/20 12:26:42;;;;;;;0.00;0.00;;;;;;;;;;4981373;28;20220;-81
2022/09/20 12:29:30;;;;;;;0.00;0.00;;;;;;;;;;5023633;28;20231;-79
2022/09/20 12:31:58;;;;;;;0.00;0.00;;;;;;;;;;5017986;28;20785;-79
2022/09/20 12:34:33;;;;;;;0.00;0.00;;;;;;;;;;5019000;28;20242;-80
2022/09/20 12:37:18;;;;;;;0.00;0.00;;;;;;;;;;5018378;28;20303;-80
2022/09/20 12:39:52;;;;;;;0.00;0.00;;;;;;;;;;5020735;28;20316;-79
2022/09/20 12:42:30;;;;;;;0.00;0.00;;;;;;;;;;5017126;28;20315;-80
2022/09/20 12:45:00;;;;;;;0.00;0.00;;;;;;;;;;5019206;28;20247;-79
2022/09/20 12:47:28;;;;;;;0.00;0.00;;;;;;;;;;5018755;28;20303;-79
2022/09/20 12:52:59;;;;;;;0.00;0.00;;;;;;;;;;5017960;28;20210;-79
2022/09/20 12:55:32;;;;;;;0.00;0.00;;;;;;;;;;5022833;28;20192;-79
2022/09/20 12:58:03;;;;;;;0.00;0.00;;;;;;;;;;5023580;28;20292;-79
2022/09/20 13:00:37;;;;;;;0.00;0.00;;;;;;;;;;5022035;28;20196;-77
2022/09/20 13:03:12;;;;;;;0.00;0.00;;;;;;;;;;5021220;28;20231;-79
2022/09/20 13:05:40;;;;;;;0.00;0.00;;;;;;;;;;5023161;28;20199;-79
2022/09/20 13:08:19;;;;;;;0.00;0.00;;;;;;;;;;5021799;28;20312;-80
2022/09/20 13:10:49;;;;;;;0.00;0.00;;;;;;;;;;5023646;28;20196;-80
2022/09/20 13:13:26;;;;;;;0.00;0.00;;;;;;;;;;5023423;28;20710;-79
2022/09/20 13:15:54;;;;;;;0.00;0.00;;;;;;;;;;5020825;28;20202;-79
2022/09/20 13:18:23;;;;;;;0.00;0.00;;;;;;;;;;5022776;28;20211;-80
2022/09/20 13:20:50;;;;;;;0.00;0.00;;;;;;;;;;5020236;28;20204;-78
2022/09/20 13:23:20;;;;;;;0.00;0.00;;;;;;;;;;5020277;28;20219;-80
2022/09/20 13:25:48;;;;;;;0.00;0.00;;;;;;;;;;5026808;28;20228;-79
2022/09/20 13:28:20;;;;;;;0.00;0.00;;;;;;;;;;5021945;28;20327;-80
2022/09/20 13:30:49;;;;;;;0.00;0.00;;;;;;;;;;5019385;28;20211;-80
2022/09/20 13:33:20;;;;;;;0.00;0.00;;;;;;;;;;5022499;28;20224;-80
2022/09/20 13:35:48;;;;;;;0.00;0.00;;;;;;;;;;5020919;28;20206;-80
2022/09/20 13:38:21;;;;;;;0.00;0.00;;;;;;;;;;5023031;28;20203;-80
2022/09/20 13:40:49;;;;;;;0.00;0.00;;;;;;;;;;5024747;28;20245;-80
2022/09/20 13:43:21;;;;;;;0.00;0.00;;;;;;;;;;5022048;28;20232;-80
2022/09/20 13:45:52;;;;;;;0.00;0.00;;;;;;;;;;5025546;28;20204;-79
2022/09/20 13:48:20;;;;;;;0.00;0.00;;;;;;;;;;5021586;28;20698;-79
2022/09/20 13:50:47;;;;;;;0.00;0.00;;;;;;;;;;5025519;28;20203;-79
2022/09/20 13:53:16;;;;;;;0.00;0.00;;;;;;;;;;5019936;28;20323;-79
2022/09/20 13:55:45;;;;;;;0.00;0.00;;;;;;;;;;5024433;28;20214;-79
2022/09/20 13:58:18;;;;;;;0.00;0.00;;;;;;;;;;5020812;28;20208;-79
2022/09/20 14:00:46;;;;;;;0.00;0.00;;;;;;;;;;5025986;28;20290;-80
2022/09/20 14:03:17;;;;;;;0.00;0.00;;;;;;;;;;5019126;28;20759;-79
2022/09/20 14:05:47;;;;;;;0.00;0.00;;;;;;;;;;5024988;28;20211;-79
2022/09/20 14:08:18;;;;;;;0.00;0.00;;;;;;;;;;5022899;28;20641;-79
2022/09/20 14:10:47;;;;;;;0.00;0.00;;;;;;;;;;5022683;28;20203;-79
2022/09/20 14:13:15;;;;;;;0.00;0.00;;;;;;;;;;5022874;28;20242;-79
2022/09/20 14:15:44;;;;;;;0.00;0.00;;;;;;;;;;5023867;28;20216;-79
2022/09/20 14:18:13;;;;;;;0.00;0.00;;;;;;;;;;5022305;28;20309;-81
2022/09/20 14:20:43;;;;;;;0.00;0.00;;;;;;;;;;5019535;28;20211;-79
2022/09/20 14:23:21;;;;;;;0.00;0.00;;;;;;;;;;5019360;28;20315;-79
2022/09/20 14:26:03;;;;;;;0.00;0.00;;;;;;;;;;5021498;28;20199;-80
2022/09/20 14:28:30;;;;;;;0.00;0.00;;;;;;;;;;5024054;28;20215;-79
2022/09/20 14:31:04;;;;;;;0.00;0.00;;;;;;;;;;5017874;28;20200;-79
2022/09/20 14:33:32;;;;;;;0.00;0.00;;;;;;;;;;5020348;28;20757;-80
2022/09/20 14:36:01;;;;;;;0.00;0.00;;;;;;;;;;5018513;28;20290;-80
2022/09/20 14:38:28;;;;;;;0.00;0.00;;;;;;;;;;5022023;28;20204;-80
2022/09/20 14:40:56;;;;;;;0.00;0.00;;;;;;;;;;5017976;28;20200;-80
2022/09/20 14:43:25;;;;;;;0.00;0.00;;;;;;;;;;5025004;28;20244;-79
2022/09/20 14:45:54;;;;;;;0.00;0.00;;;;;;;;;;5025162;28;20192;-79
2022/09/20 14:48:31;;;;;;;0.00;0.00;;;;;;;;;;5022408;28;20223;-79
2022/09/20 14:51:26;;;;;;;0.00;0.00;;;;;;;;;;5021051;28;20214;-80
2022/09/20 14:54:14;;;;;;;0.00;0.00;;;;;;;;;;4990258;28;20240;-79
2022/09/20 14:56:43;;;;;;;0.00;0.00;;;;;;;;;;5022256;28;20203;-80
2022/09/20 14:59:24;;;;;;;0.00;0.00;;;;;;;;;;5025597;28;20195;-79
2022/09/20 15:01:57;;;;;;;0.00;0.00;;;;;;;;;;5020456;28;20311;-81
2022/09/20 15:04:26;;;;;;;0.00;0.00;;;;;;;;;;5024256;28;20196;-80
2022/09/20 15:06:54;;;;;;;0.00;0.00;;;;;;;;;;5023444;28;20203;-78
2022/09/20 15:09:23;;;;;;;0.00;0.00;;;;;;;;;;5021661;28;20224;-79
2022/09/20 15:12:01;;;;;;;0.00;0.00;;;;;;;;;;5022767;28;20227;-78
2022/09/20 15:14:28;;;;;;;0.00;0.00;;;;;;;;;;5014700;28;20223;-77
2022/09/20 15:16:55;;;;;;;0.00;0.00;;;;;;;;;;5019203;28;20204;-77
2022/09/20 15:19:22;;;;;;;0.00;0.00;;;;;;;;;;5035101;28;20258;-78
2022/09/20 15:21:49;;;;;;;0.00;0.00;;;;;;;;;;5021370;28;20223;-78
2022/09/20 15:24:17;;;;;;;0.00;0.00;;;;;;;;;;5022135;28;20209;-78
2022/09/20 15:26:46;;;;;;;0.00;0.00;;;;;;;;;;5021178;28;20291;-78